sensor_id;sensor_type;location;lat;lon;timestamp;P1;durP1;ratioP1;P2;durP2;ratioP2
75156;SDS011;63736;50.076;8.198;2023-02-22T00:00:34;1036.85;;;677.33;;
75156;SDS011;63736;50.076;8.198;2023-02-22T00:03:09;1020.65;;;666.40;;
75156;SDS011;63736;50.076;8.198;2023-02-22T00:05:35;1013.65;;;660.78;;
75156;SDS011;63736;50.076;8.198;2023-02-22T00:08:03;1010.97;;;664.57;;
75156;SDS011;63736;50.076;8.198;2023-02-22T00:10:29;1003.03;;;650.22;;
75156;SDS011;63736;50.076;8.198;2023-02-22T00:12:54;1003.23;;;641.47;;
75156;SDS011;63736;50.076;8.198;2023-02-22T00:15:21;1009.53;;;632.55;;
75156;SDS011;63736;50.076;8.198;2023-02-22T00:17:51;997.25;;;625.78;;
75156;SDS011;63736;50.076;8.198;2023-02-22T00:20:17;992.43;;;610.20;;
75156;SDS011;63736;50.076;8.198;2023-02-22T00:22:43;987.53;;;601.03;;
75156;SDS011;63736;50.076;8.198;2023-02-22T00:25:16;998.42;;;603.90;;
75156;SDS011;63736;50.076;8.198;2023-02-22T00:27:43;1000.20;;;593.50;;
75156;SDS011;63736;50.076;8.198;2023-02-22T00:30:16;988.03;;;577.83;;
75156;SDS011;63736;50.076;8.198;2023-02-22T00:32:47;988.37;;;568.67;;
75156;SDS011;63736;50.076;8.198;2023-02-22T00:35:14;984.78;;;556.50;;
75156;SDS011;63736;50.076;8.198;2023-02-22T00:37:41;982.40;;;549.35;;
75156;SDS011;63736;50.076;8.198;2023-02-22T00:40:08;982.40;;;540.60;;
75156;SDS011;63736;50.076;8.198;2023-02-22T00:42:34;984.08;;;534.17;;
75156;SDS011;63736;50.076;8.198;2023-02-22T00:44:59;983.57;;;520.97;;
75156;SDS011;63736;50.076;8.198;2023-02-22T00:47:25;979.80;;;508.17;;
75156;SDS011;63736;50.076;8.198;2023-02-22T00:49:51;989.58;;;511.95;;
75156;SDS011;63736;50.076;8.198;2023-02-22T00:52:16;994.90;;;501.53;;
75156;SDS011;63736;50.076;8.198;2023-02-22T00:54:41;998.17;;;491.67;;
75156;SDS011;63736;50.076;8.198;2023-02-22T00:57:07;982.93;;;470.77;;
75156;SDS011;63736;50.076;8.198;2023-02-22T00:59:32;983.67;;;469.83;;
75156;SDS011;63736;50.076;8.198;2023-02-22T01:01:58;990.43;;;463.00;;
75156;SDS011;63736;50.076;8.198;2023-02-22T01:04:23;978.67;;;456.97;;
75156;SDS011;63736;50.076;8.198;2023-02-22T01:06:48;978.67;;;445.00;;
75156;SDS011;63736;50.076;8.198;2023-02-22T01:09:13;953.73;;;442.40;;
75156;SDS011;63736;50.076;8.198;2023-02-22T01:11:38;951.97;;;443.00;;
75156;SDS011;63736;50.076;8.198;2023-02-22T01:14:05;951.45;;;441.98;;
75156;SDS011;63736;50.076;8.198;2023-02-22T01:16:33;948.75;;;440.15;;
75156;SDS011;63736;50.076;8.198;2023-02-22T01:18:59;945.45;;;432.55;;
75156;SDS011;63736;50.076;8.198;2023-02-22T01:21:25;950.10;;;423.23;;
75156;SDS011;63736;50.076;8.198;2023-02-22T01:23:50;953.05;;;430.00;;
75156;SDS011;63736;50.076;8.198;2023-02-22T01:26:16;930.73;;;423.23;;
75156;SDS011;63736;50.076;8.198;2023-02-22T01:28:43;927.10;;;434.43;;
75156;SDS011;63736;50.076;8.198;2023-02-22T01:31:09;915.53;;;471.77;;
75156;SDS011;63736;50.076;8.198;2023-02-22T01:33:34;911.47;;;453.70;;
75156;SDS011;63736;50.076;8.198;2023-02-22T01:35:59;927.88;;;441.67;;
75156;SDS011;63736;50.076;8.198;2023-02-22T01:38:25;926.37;;;438.30;;
75156;SDS011;63736;50.076;8.198;2023-02-22T01:40:50;917.87;;;426.83;;
75156;SDS011;63736;50.076;8.198;2023-02-22T01:43:19;905.87;;;421.50;;
75156;SDS011;63736;50.076;8.198;2023-02-22T01:45:48;904.60;;;422.60;;
75156;SDS011;63736;50.076;8.198;2023-02-22T01:48:29;892.20;;;420.30;;
75156;SDS011;63736;50.076;8.198;2023-02-22T01:51:00;888.10;;;415.25;;
75156;SDS011;63736;50.076;8.198;2023-02-22T01:53:36;890.47;;;407.45;;
75156;SDS011;63736;50.076;8.198;2023-02-22T01:56:05;876.93;;;401.83;;
75156;SDS011;63736;50.076;8.198;2023-02-22T01:58:31;867.75;;;399.20;;
75156;SDS011;63736;50.076;8.198;2023-02-22T02:00:59;859.58;;;397.23;;
75156;SDS011;63736;50.076;8.198;2023-02-22T02:03:26;856.63;;;397.23;;
75156;SDS011;63736;50.076;8.198;2023-02-22T02:05:58;854.17;;;394.95;;
75156;SDS011;63736;50.076;8.198;2023-02-22T02:08:35;855.57;;;399.30;;
75156;SDS011;63736;50.076;8.198;2023-02-22T02:11:06;851.95;;;396.45;;
75156;SDS011;63736;50.076;8.198;2023-02-22T02:13:33;852.97;;;396.40;;
75156;SDS011;63736;50.076;8.198;2023-02-22T02:15:59;855.00;;;400.67;;
75156;SDS011;63736;50.076;8.198;2023-02-22T02:18:25;855.47;;;402.70;;
75156;SDS011;63736;50.076;8.198;2023-02-22T02:21:03;859.72;;;405.60;;
75156;SDS011;63736;50.076;8.198;2023-02-22T02:23:37;858.57;;;409.90;;
75156;SDS011;63736;50.076;8.198;2023-02-22T02:32:34;851.00;;;409.02;;
75156;SDS011;63736;50.076;8.198;2023-02-22T02:35:11;859.80;;;417.60;;
75156;SDS011;63736;50.076;8.198;2023-02-22T02:37:46;862.30;;;421.37;;
75156;SDS011;63736;50.076;8.198;2023-02-22T02:40:30;852.08;;;413.92;;
75156;SDS011;63736;50.076;8.198;2023-02-22T02:43:06;858.80;;;424.73;;
75156;SDS011;63736;50.076;8.198;2023-02-22T02:45:50;852.10;;;416.25;;
75156;SDS011;63736;50.076;8.198;2023-02-22T02:48:25;852.63;;;415.42;;
75156;SDS011;63736;50.076;8.198;2023-02-22T02:50:53;849.20;;;411.50;;
75156;SDS011;63736;50.076;8.198;2023-02-22T02:53:21;849.60;;;411.63;;
75156;SDS011;63736;50.076;8.198;2023-02-22T02:55:51;848.63;;;410.02;;
75156;SDS011;63736;50.076;8.198;2023-02-22T02:58:18;856.13;;;416.70;;
75156;SDS011;63736;50.076;8.198;2023-02-22T03:00:46;852.47;;;414.92;;
75156;SDS011;63736;50.076;8.198;2023-02-22T03:06:03;853.10;;;416.55;;
75156;SDS011;63736;50.076;8.198;2023-02-22T03:08:40;857.20;;;423.00;;
75156;SDS011;63736;50.076;8.198;2023-02-22T03:24:44;850.88;;;425.25;;
75156;SDS011;63736;50.076;8.198;2023-02-22T03:30:08;843.22;;;423.27;;
75156;SDS011;63736;50.076;8.198;2023-02-22T03:32:39;857.33;;;437.63;;
75156;SDS011;63736;50.076;8.198;2023-02-22T03:35:13;852.10;;;428.40;;
75156;SDS011;63736;50.076;8.198;2023-02-22T03:37:45;851.80;;;431.23;;
75156;SDS011;63736;50.076;8.198;2023-02-22T03:40:15;855.45;;;432.77;;
75156;SDS011;63736;50.076;8.198;2023-02-22T03:42:50;846.85;;;429.50;;
75156;SDS011;63736;50.076;8.198;2023-02-22T03:45:19;849.10;;;432.27;;
75156;SDS011;63736;50.076;8.198;2023-02-22T03:47:48;853.77;;;444.73;;
75156;SDS011;63736;50.076;8.198;2023-02-22T03:50:19;851.97;;;448.67;;
75156;SDS011;63736;50.076;8.198;2023-02-22T03:52:50;844.78;;;451.80;;
75156;SDS011;63736;50.076;8.198;2023-02-22T03:55:16;855.33;;;467.25;;
75156;SDS011;63736;50.076;8.198;2023-02-22T03:57:44;853.37;;;469.67;;
75156;SDS011;63736;50.076;8.198;2023-02-22T04:00:14;854.45;;;481.40;;
75156;SDS011;63736;50.076;8.198;2023-02-22T04:02:42;857.78;;;491.25;;
75156;SDS011;63736;50.076;8.198;2023-02-22T04:05:08;860.88;;;500.30;;
75156;SDS011;63736;50.076;8.198;2023-02-22T04:07:34;866.67;;;508.40;;
75156;SDS011;63736;50.076;8.198;2023-02-22T04:09:59;860.20;;;509.03;;
75156;SDS011;63736;50.076;8.198;2023-02-22T04:12:26;868.95;;;519.95;;
75156;SDS011;63736;50.076;8.198;2023-02-22T04:14:52;857.83;;;517.43;;
75156;SDS011;63736;50.076;8.198;2023-02-22T04:17:17;855.63;;;511.77;;
75156;SDS011;63736;50.076;8.198;2023-02-22T04:19:43;853.70;;;520.77;;
75156;SDS011;63736;50.076;8.198;2023-02-22T04:22:09;856.37;;;525.03;;
75156;SDS011;63736;50.076;8.198;2023-02-22T04:24:35;862.58;;;532.88;;
75156;SDS011;63736;50.076;8.198;2023-02-22T04:27:00;855.57;;;525.03;;
75156;SDS011;63736;50.076;8.198;2023-02-22T04:29:25;859.07;;;535.10;;
75156;SDS011;63736;50.076;8.198;2023-02-22T04:31:50;854.97;;;536.67;;
75156;SDS011;63736;50.076;8.198;2023-02-22T04:34:16;858.67;;;538.23;;
75156;SDS011;63736;50.076;8.198;2023-02-22T04:36:41;855.23;;;535.03;;
75156;SDS011;63736;50.076;8.198;2023-02-22T04:39:08;855.95;;;537.45;;
75156;SDS011;63736;50.076;8.198;2023-02-22T04:41:33;857.77;;;537.20;;
75156;SDS011;63736;50.076;8.198;2023-02-22T04:43:59;852.07;;;530.07;;
75156;SDS011;63736;50.076;8.198;2023-02-22T04:46:24;855.27;;;538.13;;
75156;SDS011;63736;50.076;8.198;2023-02-22T04:48:50;848.42;;;538.20;;
75156;SDS011;63736;50.076;8.198;2023-02-22T04:51:15;856.00;;;539.23;;
75156;SDS011;63736;50.076;8.198;2023-02-22T04:53:41;860.58;;;545.78;;
75156;SDS011;63736;50.076;8.198;2023-02-22T04:56:06;860.20;;;545.30;;
75156;SDS011;63736;50.076;8.198;2023-02-22T04:58:32;849.80;;;545.03;;
75156;SDS011;63736;50.076;8.198;2023-02-22T05:00:57;851.43;;;544.97;;
75156;SDS011;63736;50.076;8.198;2023-02-22T05:03:23;855.13;;;545.22;;
75156;SDS011;63736;50.076;8.198;2023-02-22T05:05:50;852.77;;;545.67;;
75156;SDS011;63736;50.076;8.198;2023-02-22T05:08:16;855.85;;;550.53;;
75156;SDS011;63736;50.076;8.198;2023-02-22T05:10:41;1067.33;;;669.43;;
75156;SDS011;63736;50.076;8.198;2023-02-22T05:15:31;953.07;;;627.13;;
75156;SDS011;63736;50.076;8.198;2023-02-22T05:17:56;967.03;;;641.63;;
75156;SDS011;63736;50.076;8.198;2023-02-22T05:20:26;950.03;;;650.67;;
75156;SDS011;63736;50.076;8.198;2023-02-22T05:22:56;1058.97;;;933.47;;
75156;SDS011;63736;50.076;8.198;2023-02-22T05:25:24;1222.93;;;487.73;;
75156;SDS011;63736;50.076;8.198;2023-02-22T05:27:50;1118.93;;;566.50;;
75156;SDS011;63736;50.076;8.198;2023-02-22T05:30:18;1086.60;;;571.65;;
75156;SDS011;63736;50.076;8.198;2023-02-22T05:32:47;1054.40;;;560.95;;
75156;SDS011;63736;50.076;8.198;2023-02-22T05:35:12;1046.60;;;581.40;;
75156;SDS011;63736;50.076;8.198;2023-02-22T05:37:38;1016.10;;;579.72;;
75156;SDS011;63736;50.076;8.198;2023-02-22T05:40:04;1004.97;;;570.77;;
75156;SDS011;63736;50.076;8.198;2023-02-22T05:42:29;1011.42;;;591.30;;
75156;SDS011;63736;50.076;8.198;2023-02-22T05:44:55;1011.47;;;590.53;;
75156;SDS011;63736;50.076;8.198;2023-02-22T05:47:20;998.40;;;583.97;;
75156;SDS011;63736;50.076;8.198;2023-02-22T05:49:45;1005.10;;;582.60;;
75156;SDS011;63736;50.076;8.198;2023-02-22T05:52:10;992.03;;;576.67;;
75156;SDS011;63736;50.076;8.198;2023-02-22T05:54:36;997.00;;;569.93;;
75156;SDS011;63736;50.076;8.198;2023-02-22T05:57:01;990.30;;;560.73;;
75156;SDS011;63736;50.076;8.198;2023-02-22T05:59:26;988.33;;;558.53;;
75156;SDS011;63736;50.076;8.198;2023-02-22T06:01:53;1176.78;;;545.00;;
75156;SDS011;63736;50.076;8.198;2023-02-22T06:04:18;1076.03;;;574.33;;
75156;SDS011;63736;50.076;8.198;2023-02-22T06:06:44;1046.50;;;567.00;;
75156;SDS011;63736;50.076;8.198;2023-02-22T06:09:09;1019.30;;;558.67;;
75156;SDS011;63736;50.076;8.198;2023-02-22T06:11:35;996.95;;;551.55;;
75156;SDS011;63736;50.076;8.198;2023-02-22T06:14:01;1197.13;;;561.57;;
75156;SDS011;63736;50.076;8.198;2023-02-22T06:16:26;1093.40;;;578.30;;
75156;SDS011;63736;50.076;8.198;2023-02-22T06:18:51;1042.03;;;560.17;;
75156;SDS011;63736;50.076;8.198;2023-02-22T06:21:17;1029.20;;;559.17;;
75156;SDS011;63736;50.076;8.198;2023-02-22T06:23:42;1015.93;;;553.03;;
75156;SDS011;63736;50.076;8.198;2023-02-22T06:26:07;1006.57;;;549.77;;
75156;SDS011;63736;50.076;8.198;2023-02-22T06:28:32;996.37;;;544.53;;
75156;SDS011;63736;50.076;8.198;2023-02-22T06:30:58;997.67;;;544.97;;
75156;SDS011;63736;50.076;8.198;2023-02-22T06:33:23;989.53;;;541.30;;
75156;SDS011;63736;50.076;8.198;2023-02-22T06:35:48;984.23;;;540.63;;
75156;SDS011;63736;50.076;8.198;2023-02-22T06:38:20;982.73;;;545.70;;
75156;SDS011;63736;50.076;8.198;2023-02-22T06:40:47;972.37;;;540.10;;
75156;SDS011;63736;50.076;8.198;2023-02-22T06:43:12;966.83;;;536.93;;
75156;SDS011;63736;50.076;8.198;2023-02-22T06:45:37;954.33;;;534.13;;
75156;SDS011;63736;50.076;8.198;2023-02-22T06:48:03;1167.77;;;560.90;;
75156;SDS011;63736;50.076;8.198;2023-02-22T06:50:28;1084.97;;;595.73;;
75156;SDS011;63736;50.076;8.198;2023-02-22T06:52:55;1047.40;;;591.78;;
75156;SDS011;63736;50.076;8.198;2023-02-22T06:55:31;1030.77;;;584.13;;
75156;SDS011;63736;50.076;8.198;2023-02-22T06:57:58;1010.78;;;577.63;;
75156;SDS011;63736;50.076;8.198;2023-02-22T07:00:24;1011.20;;;577.13;;
75156;SDS011;63736;50.076;8.198;2023-02-22T07:02:51;1005.85;;;577.08;;
75156;SDS011;63736;50.076;8.198;2023-02-22T07:05:18;1006.63;;;576.63;;
75156;SDS011;63736;50.076;8.198;2023-02-22T07:07:44;993.95;;;568.47;;
75156;SDS011;63736;50.076;8.198;2023-02-22T07:10:18;993.08;;;560.75;;
75156;SDS011;63736;50.076;8.198;2023-02-22T07:12:48;995.78;;;563.10;;
75156;SDS011;63736;50.076;8.198;2023-02-22T07:15:14;988.10;;;558.40;;
75156;SDS011;63736;50.076;8.198;2023-02-22T07:17:42;989.42;;;559.20;;
75156;SDS011;63736;50.076;8.198;2023-02-22T07:20:07;992.80;;;559.43;;
75156;SDS011;63736;50.076;8.198;2023-02-22T07:22:35;992.60;;;556.20;;
75156;SDS011;63736;50.076;8.198;2023-02-22T07:25:00;1293.23;;;672.00;;
75156;SDS011;63736;50.076;8.198;2023-02-22T07:29:51;1090.67;;;713.87;;
75156;SDS011;63736;50.076;8.198;2023-02-22T07:32:16;1092.53;;;732.57;;
75156;SDS011;63736;50.076;8.198;2023-02-22T07:34:41;1110.77;;;743.93;;
75156;SDS011;63736;50.076;8.198;2023-02-22T07:37:07;1090.27;;;734.37;;
75156;SDS011;63736;50.076;8.198;2023-02-22T07:39:32;1264.63;;;842.00;;
75156;SDS011;63736;50.076;8.198;2023-02-22T07:41:58;1329.40;;;902.80;;
75156;SDS011;63736;50.076;8.198;2023-02-22T07:44:23;1406.15;;;668.15;;
75156;SDS011;63736;50.076;8.198;2023-02-22T07:46:49;1245.40;;;779.77;;
75156;SDS011;63736;50.076;8.198;2023-02-22T07:49:14;1395.37;;;691.47;;
75156;SDS011;63736;50.076;8.198;2023-02-22T07:54:05;1188.43;;;878.77;;
75156;SDS011;63736;50.076;8.198;2023-02-22T07:56:31;1348.90;;;747.83;;
75156;SDS011;63736;50.076;8.198;2023-02-22T07:58:56;1399.93;;;575.93;;
75156;SDS011;63736;50.076;8.198;2023-02-22T08:01:21;1311.17;;;780.63;;
75156;SDS011;63736;50.076;8.198;2023-02-22T08:03:48;1471.07;;;680.33;;
75156;SDS011;63736;50.076;8.198;2023-02-22T08:06:13;1388.90;;;686.65;;
75156;SDS011;63736;50.076;8.198;2023-02-22T08:08:39;1338.23;;;661.20;;
75156;SDS011;63736;50.076;8.198;2023-02-22T08:11:04;1327.50;;;663.60;;
75156;SDS011;63736;50.076;8.198;2023-02-22T08:13:29;1330.47;;;662.97;;
75156;SDS011;63736;50.076;8.198;2023-02-22T08:15:55;1342.67;;;676.17;;
75156;SDS011;63736;50.076;8.198;2023-02-22T08:18:21;1366.45;;;718.63;;
75156;SDS011;63736;50.076;8.198;2023-02-22T08:20:47;1369.87;;;715.10;;
75156;SDS011;63736;50.076;8.198;2023-02-22T08:23:14;1394.50;;;737.38;;
75156;SDS011;63736;50.076;8.198;2023-02-22T08:25:40;1413.25;;;742.92;;
75156;SDS011;63736;50.076;8.198;2023-02-22T08:28:10;1414.90;;;803.50;;
75156;SDS011;63736;50.076;8.198;2023-02-22T08:30:38;1412.33;;;760.67;;
75156;SDS011;63736;50.076;8.198;2023-02-22T08:33:04;1466.60;;;811.20;;
75156;SDS011;63736;50.076;8.198;2023-02-22T08:35:30;1464.93;;;778.97;;
75156;SDS011;63736;50.076;8.198;2023-02-22T08:38:01;1516.30;;;788.08;;
75156;SDS011;63736;50.076;8.198;2023-02-22T08:40:29;1515.57;;;787.80;;
75156;SDS011;63736;50.076;8.198;2023-02-22T08:42:55;1545.28;;;773.47;;
75156;SDS011;63736;50.076;8.198;2023-02-22T08:45:22;1565.82;;;766.30;;
75156;SDS011;63736;50.076;8.198;2023-02-22T08:47:48;1584.13;;;806.80;;
75156;SDS011;63736;50.076;8.198;2023-02-22T08:50:18;1632.03;;;845.72;;
75156;SDS011;63736;50.076;8.198;2023-02-22T08:52:49;1645.55;;;831.15;;
75156;SDS011;63736;50.076;8.198;2023-02-22T08:55:17;1644.28;;;809.35;;
75156;SDS011;63736;50.076;8.198;2023-02-22T08:57:43;1632.32;;;800.67;;
75156;SDS011;63736;50.076;8.198;2023-02-22T09:00:09;1635.87;;;794.27;;
75156;SDS011;63736;50.076;8.198;2023-02-22T09:02:34;1636.15;;;793.10;;
75156;SDS011;63736;50.076;8.198;2023-02-22T09:05:00;1608.30;;;778.77;;
75156;SDS011;63736;50.076;8.198;2023-02-22T09:07:25;1592.43;;;764.57;;
75156;SDS011;63736;50.076;8.198;2023-02-22T09:09:50;1584.83;;;757.57;;
75156;SDS011;63736;50.076;8.198;2023-02-22T09:12:15;1559.47;;;741.00;;
75156;SDS011;63736;50.076;8.198;2023-02-22T09:14:41;1542.47;;;725.40;;
75156;SDS011;63736;50.076;8.198;2023-02-22T09:17:07;1527.97;;;717.60;;
75156;SDS011;63736;50.076;8.198;2023-02-22T09:19:32;1510.07;;;705.93;;
75156;SDS011;63736;50.076;8.198;2023-02-22T09:21:58;1511.03;;;705.23;;
75156;SDS011;63736;50.076;8.198;2023-02-22T09:24:26;1490.20;;;695.10;;
75156;SDS011;63736;50.076;8.198;2023-02-22T09:26:51;1485.07;;;690.40;;
75156;SDS011;63736;50.076;8.198;2023-02-22T09:29:20;1479.70;;;682.53;;
75156;SDS011;63736;50.076;8.198;2023-02-22T09:31:47;1473.43;;;680.55;;
75156;SDS011;63736;50.076;8.198;2023-02-22T09:34:14;1461.15;;;672.17;;
75156;SDS011;63736;50.076;8.198;2023-02-22T09:36:40;1448.70;;;667.83;;
75156;SDS011;63736;50.076;8.198;2023-02-22T09:39:11;1454.57;;;660.30;;
75156;SDS011;63736;50.076;8.198;2023-02-22T09:47:06;1474.30;;;668.78;;
75156;SDS011;63736;50.076;8.198;2023-02-22T09:49:43;1478.93;;;662.93;;
75156;SDS011;63736;50.076;8.198;2023-02-22T09:52:31;1489.10;;;675.17;;
75156;SDS011;63736;50.076;8.198;2023-02-22T09:57:33;1495.70;;;668.50;;
75156;SDS011;63736;50.076;8.198;2023-02-22T10:00:14;1488.25;;;662.25;;
75156;SDS011;63736;50.076;8.198;2023-02-22T10:05:57;1639.93;;;780.28;;
75156;SDS011;63736;50.076;8.198;2023-02-22T10:08:27;1582.50;;;764.78;;
75156;SDS011;63736;50.076;8.198;2023-02-22T10:11:01;1558.27;;;758.90;;
75156;SDS011;63736;50.076;8.198;2023-02-22T10:13:51;1550.15;;;757.22;;
75156;SDS011;63736;50.076;8.198;2023-02-22T10:16:32;1530.20;;;747.72;;
75156;SDS011;63736;50.076;8.198;2023-02-22T10:27:03;1471.68;;;701.13;;
75156;SDS011;63736;50.076;8.198;2023-02-22T10:29:41;1462.57;;;689.97;;
75156;SDS011;63736;50.076;8.198;2023-02-22T10:32:18;1657.60;;;678.00;;
75156;SDS011;63736;50.076;8.198;2023-02-22T10:34:49;1542.43;;;681.45;;
75156;SDS011;63736;50.076;8.198;2023-02-22T10:37:22;1496.90;;;685.83;;
75156;SDS011;63736;50.076;8.198;2023-02-22T10:39:52;1481.95;;;686.22;;
75156;SDS011;63736;50.076;8.198;2023-02-22T10:42:42;1469.30;;;685.93;;
75156;SDS011;63736;50.076;8.198;2023-02-22T10:45:23;1465.78;;;678.85;;
75156;SDS011;63736;50.076;8.198;2023-02-22T10:47:50;1468.85;;;684.28;;
75156;SDS011;63736;50.076;8.198;2023-02-22T10:50:19;1463.38;;;677.50;;
75156;SDS011;63736;50.076;8.198;2023-02-22T10:52:45;1463.68;;;675.95;;
75156;SDS011;63736;50.076;8.198;2023-02-22T10:55:12;1460.70;;;674.50;;
75156;SDS011;63736;50.076;8.198;2023-02-22T10:57:39;1458.20;;;673.85;;
75156;SDS011;63736;50.076;8.198;2023-02-22T11:03:15;1464.82;;;675.97;;
75156;SDS011;63736;50.076;8.198;2023-02-22T11:05:44;1461.85;;;674.70;;
75156;SDS011;63736;50.076;8.198;2023-02-22T11:08:29;1459.25;;;676.42;;
75156;SDS011;63736;50.076;8.198;2023-02-22T11:10:59;1448.10;;;673.70;;
75156;SDS011;63736;50.076;8.198;2023-02-22T11:13:31;1459.83;;;679.17;;
75156;SDS011;63736;50.076;8.198;2023-02-22T11:15:58;1458.80;;;677.38;;
75156;SDS011;63736;50.076;8.198;2023-02-22T11:18:28;1461.85;;;679.22;;
75156;SDS011;63736;50.076;8.198;2023-02-22T11:21:00;1458.50;;;677.38;;
75156;SDS011;63736;50.076;8.198;2023-02-22T11:23:28;1461.43;;;679.75;;
75156;SDS011;63736;50.076;8.198;2023-02-22T11:28:48;1450.43;;;672.58;;
75156;SDS011;63736;50.076;8.198;2023-02-22T11:31:21;1443.00;;;667.65;;
75156;SDS011;63736;50.076;8.198;2023-02-22T11:33:52;1444.75;;;669.75;;
75156;SDS011;63736;50.076;8.198;2023-02-22T11:36:33;1434.80;;;663.37;;
75156;SDS011;63736;50.076;8.198;2023-02-22T11:39:51;1434.30;;;662.70;;
75156;SDS011;63736;50.076;8.198;2023-02-22T11:41:58;1444.72;;;665.20;;
75156;SDS011;63736;50.076;8.198;2023-02-22T11:44:44;1437.97;;;660.28;;
75156;SDS011;63736;50.076;8.198;2023-02-22T11:47:10;1444.70;;;659.00;;
75156;SDS011;63736;50.076;8.198;2023-02-22T11:49:37;1447.22;;;659.00;;
75156;SDS011;63736;50.076;8.198;2023-02-22T11:52:10;1440.57;;;654.17;;
75156;SDS011;63736;50.076;8.198;2023-02-22T11:54:57;1460.55;;;662.28;;
75156;SDS011;63736;50.076;8.198;2023-02-22T11:57:59;1456.78;;;658.70;;
75156;SDS011;63736;50.076;8.198;2023-02-22T12:00:51;1452.93;;;659.50;;
75156;SDS011;63736;50.076;8.198;2023-02-22T12:08:57;1461.93;;;657.60;;
75156;SDS011;63736;50.076;8.198;2023-02-22T12:11:33;1466.40;;;658.15;;
75156;SDS011;63736;50.076;8.198;2023-02-22T12:19:43;1456.73;;;654.90;;
75156;SDS011;63736;50.076;8.198;2023-02-22T12:22:12;1459.53;;;652.75;;
75156;SDS011;63736;50.076;8.198;2023-02-22T12:24:52;1466.10;;;652.83;;
75156;SDS011;63736;50.076;8.198;2023-02-22T12:27:28;1462.00;;;653.13;;
75156;SDS011;63736;50.076;8.198;2023-02-22T12:29:58;1467.82;;;651.20;;
75156;SDS011;63736;50.076;8.198;2023-02-22T12:35:20;1467.35;;;653.70;;
75156;SDS011;63736;50.076;8.198;2023-02-22T12:37:51;1471.95;;;648.65;;
75156;SDS011;63736;50.076;8.198;2023-02-22T12:40:49;1468.05;;;653.45;;
75156;SDS011;63736;50.076;8.198;2023-02-22T12:43:28;1479.82;;;657.97;;
75156;SDS011;63736;50.076;8.198;2023-02-22T12:49:07;1487.55;;;659.17;;
75156;SDS011;63736;50.076;8.198;2023-02-22T12:54:54;1502.95;;;655.90;;
75156;SDS011;63736;50.076;8.198;2023-02-22T13:05:27;1529.40;;;663.58;;
75156;SDS011;63736;50.076;8.198;2023-02-22T13:10:56;1525.50;;;660.90;;
75156;SDS011;63736;50.076;8.198;2023-02-22T13:16:10;1522.82;;;659.47;;
75156;SDS011;63736;50.076;8.198;2023-02-22T13:21:22;1517.25;;;656.50;;
75156;SDS011;63736;50.076;8.198;2023-02-22T13:24:03;1517.20;;;655.97;;
75156;SDS011;63736;50.076;8.198;2023-02-22T13:26:44;1512.63;;;653.30;;
75156;SDS011;63736;50.076;8.198;2023-02-22T13:29:15;1508.63;;;651.55;;
75156;SDS011;63736;50.076;8.198;2023-02-22T13:32:12;1504.13;;;651.80;;
75156;SDS011;63736;50.076;8.198;2023-02-22T13:34:49;1506.00;;;659.00;;
75156;SDS011;63736;50.076;8.198;2023-02-22T13:54:50;1488.87;;;654.00;;
75156;SDS011;63736;50.076;8.198;2023-02-22T13:57:23;1492.22;;;652.95;;
75156;SDS011;63736;50.076;8.198;2023-02-22T14:05:33;1483.20;;;647.78;;
75156;SDS011;63736;50.076;8.198;2023-02-22T14:08:00;1485.37;;;650.40;;
75156;SDS011;63736;50.076;8.198;2023-02-22T14:10:36;1486.82;;;645.85;;
75156;SDS011;63736;50.076;8.198;2023-02-22T14:13:08;1473.47;;;643.47;;
75156;SDS011;63736;50.076;8.198;2023-02-22T14:15:33;1483.20;;;645.27;;
75156;SDS011;63736;50.076;8.198;2023-02-22T14:18:00;1479.78;;;642.55;;
75156;SDS011;63736;50.076;8.198;2023-02-22T14:20:31;1478.93;;;646.53;;
75156;SDS011;63736;50.076;8.198;2023-02-22T14:26:08;1463.72;;;642.33;;
75156;SDS011;63736;50.076;8.198;2023-02-22T14:31:09;1468.25;;;638.72;;
75156;SDS011;63736;50.076;8.198;2023-02-22T14:36:20;1471.77;;;646.27;;
75156;SDS011;63736;50.076;8.198;2023-02-22T14:38:47;1480.28;;;645.50;;
75156;SDS011;63736;50.076;8.198;2023-02-22T14:41:14;1478.47;;;640.28;;
75156;SDS011;63736;50.076;8.198;2023-02-22T14:43:41;1485.32;;;648.45;;
75156;SDS011;63736;50.076;8.198;2023-02-22T14:46:07;1478.70;;;645.40;;
75156;SDS011;63736;50.076;8.198;2023-02-22T14:48:40;1484.97;;;648.15;;
75156;SDS011;63736;50.076;8.198;2023-02-22T14:51:42;1485.07;;;645.58;;
75156;SDS011;63736;50.076;8.198;2023-02-22T14:54:08;1477.05;;;644.88;;
75156;SDS011;63736;50.076;8.198;2023-02-22T14:59:46;1468.23;;;636.80;;
75156;SDS011;63736;50.076;8.198;2023-02-22T15:02:18;1468.88;;;636.08;;
75156;SDS011;63736;50.076;8.198;2023-02-22T15:04:50;1471.72;;;634.90;;
75156;SDS011;63736;50.076;8.198;2023-02-22T15:07:23;1482.40;;;644.50;;
75156;SDS011;63736;50.076;8.198;2023-02-22T15:10:05;1477.45;;;643.72;;
75156;SDS011;63736;50.076;8.198;2023-02-22T15:12:52;1472.80;;;640.80;;
75156;SDS011;63736;50.076;8.198;2023-02-22T15:15:32;1474.50;;;639.25;;
75156;SDS011;63736;50.076;8.198;2023-02-22T15:17:59;1477.72;;;637.45;;
75156;SDS011;63736;50.076;8.198;2023-02-22T15:20:25;1467.68;;;638.25;;
75156;SDS011;63736;50.076;8.198;2023-02-22T15:22:51;1478.60;;;644.57;;
75156;SDS011;63736;50.076;8.198;2023-02-22T15:25:24;1479.10;;;644.05;;
75156;SDS011;63736;50.076;8.198;2023-02-22T15:27:52;1478.55;;;637.47;;
75156;SDS011;63736;50.076;8.198;2023-02-22T15:30:27;1477.32;;;645.47;;
75156;SDS011;63736;50.076;8.198;2023-02-22T15:32:56;1470.63;;;642.30;;
75156;SDS011;63736;50.076;8.198;2023-02-22T15:37:57;1467.03;;;638.37;;
75156;SDS011;63736;50.076;8.198;2023-02-22T15:40:30;1473.85;;;651.53;;
75156;SDS011;63736;50.076;8.198;2023-02-22T15:42:58;1463.60;;;642.63;;
75156;SDS011;63736;50.076;8.198;2023-02-22T15:45:26;1462.05;;;644.65;;
75156;SDS011;63736;50.076;8.198;2023-02-22T15:47:56;1457.80;;;644.55;;
75156;SDS011;63736;50.076;8.198;2023-02-22T15:52:57;1458.68;;;640.17;;
75156;SDS011;63736;50.076;8.198;2023-02-22T15:55:32;1470.87;;;657.97;;
75156;SDS011;63736;50.076;8.198;2023-02-22T16:00:42;1450.03;;;633.97;;
75156;SDS011;63736;50.076;8.198;2023-02-22T16:03:22;1437.82;;;625.25;;
75156;SDS011;63736;50.076;8.198;2023-02-22T16:05:52;1425.53;;;616.13;;
75156;SDS011;63736;50.076;8.198;2023-02-22T16:11:34;1412.22;;;615.00;;
75156;SDS011;63736;50.076;8.198;2023-02-22T16:14:05;1406.65;;;614.67;;
75156;SDS011;63736;50.076;8.198;2023-02-22T16:16:46;1404.78;;;620.05;;
75156;SDS011;63736;50.076;8.198;2023-02-22T16:21:56;1370.38;;;605.13;;
75156;SDS011;63736;50.076;8.198;2023-02-22T16:24:30;1363.78;;;602.50;;